Time;durP1;ratioP1;P1;durP2;ratioP2;P2;SDS_P1;SDS_P2;PMS_P1;PMS_P2;Temp;Humidity;BMP_temperature;BMP_pressure;BME280_temperature;BME280_humidity;BME280_pressure;Samples;Min_cycle;Max_cycle;Signal;HPM_P1;HPM_P2
2023/01/26 00:05:55;;;;;;;7.85;5.13;;;;;;;;;;20999220;28;20464;-58
2023/01/26 00:15:57;;;;;;;6.05;3.47;;;;;;;;;;20998524;28;20485;-57
2023/01/26 00:25:59;;;;;;;4.35;2.80;;;;;;;;;;20996826;28;20135;-57
2023/01/26 00:36:01;;;;;;;5.22;1.70;;;;;;;;;;20996186;28;20625;-57
2023/01/26 00:46:03;;;;;;;8.02;2.22;;;;;;;;;;20995138;28;20135;-57
2023/01/26 00:56:05;;;;;;;5.05;3.35;;;;;;;;;;20995681;28;20392;-58
2023/01/26 01:06:07;;;;;;;5.35;2.90;;;;;;;;;;20995252;28;20127;-58
2023/01/26 01:16:14;;;;;;;4.85;3.13;;;;;;;;;;20993937;28;20083;-58
2023/01/26 01:26:16;;;;;;;7.38;3.28;;;;;;;;;;21006628;28;20098;-59
2023/01/26 01:36:20;;;;;;;6.65;4.70;;;;;;;;;;21009734;28;20517;-58
2023/01/26 01:46:36;;;;;;;7.80;4.20;;;;;;;;;;21007549;28;20059;-57
2023/01/26 01:56:40;;;;;;;9.82;5.40;;;;;;;;;;21008531;28;20447;-57
2023/01/26 02:06:46;;;;;;;5.57;4.45;;;;;;;;;;21008138;28;20136;-59
2023/01/26 02:16:48;;;;;;;7.97;5.18;;;;;;;;;;21006550;28;20048;-57
2023/01/26 02:26:53;;;;;;;7.22;4.30;;;;;;;;;;21007505;28;20404;-59
2023/01/26 02:36:59;;;;;;;8.23;4.97;;;;;;;;;;21006829;28;20480;-57
2023/01/26 02:47:09;;;;;;;10.90;5.72;;;;;;;;;;21003919;28;20088;-59
2023/01/26 02:57:13;;;;;;;10.00;5.07;;;;;;;;;;21003739;28;20055;-58
2023/01/26 03:07:19;;;;;;;8.00;5.38;;;;;;;;;;21002998;28;20419;-59
2023/01/26 03:17:24;;;;;;;7.63;4.20;;;;;;;;;;21001380;28;20048;-59
2023/01/26 03:27:31;;;;;;;7.83;5.73;;;;;;;;;;21000681;28;20056;-59
2023/01/26 03:37:35;;;;;;;9.98;6.47;;;;;;;;;;21001156;28;20539;-58
2023/01/26 03:58:00;;;;;;;11.07;6.75;;;;;;;;;;20998593;28;20077;-59
2023/01/26 04:08:27;;;;;;;8.70;6.10;;;;;;;;;;20998524;28;20508;-57
2023/01/26 04:28:51;;;;;;;11.23;6.07;;;;;;;;;;20997044;28;20057;-58
2023/01/26 04:38:54;;;;;;;10.68;6.03;;;;;;;;;;20997377;28;20411;-58
2023/01/26 04:48:56;;;;;;;10.02;6.38;;;;;;;;;;20995346;28;20059;-57
2023/01/26 04:59:00;;;;;;;11.25;6.32;;;;;;;;;;21006858;28;20052;-58
2023/01/26 05:09:04;;;;;;;10.55;6.80;;;;;;;;;;21012435;28;20135;-58
2023/01/26 05:19:07;;;;;;;12.18;6.03;;;;;;;;;;21010458;28;20060;-57
2023/01/26 05:29:09;;;;;;;11.60;6.47;;;;;;;;;;21009994;28;20048;-59
2023/01/26 05:39:11;;;;;;;11.15;6.78;;;;;;;;;;21009368;28;20127;-58
2023/01/26 05:49:13;;;;;;;10.18;6.35;;;;;;;;;;21008571;28;20457;-57
2023/01/26 05:59:15;;;;;;;10.60;6.10;;;;;;;;;;20990285;28;20171;-58
2023/01/26 06:09:17;;;;;;;9.45;6.35;;;;;;;;;;21006122;28;20131;-59
2023/01/26 06:19:19;;;;;;;11.50;7.25;;;;;;;;;;21007170;28;20048;-59
2023/01/26 06:29:21;;;;;;;14.18;7.88;;;;;;;;;;21005639;28;20427;-57
2023/01/26 06:39:24;;;;;;;13.95;7.28;;;;;;;;;;21004455;28;20044;-56
2023/01/26 06:49:26;;;;;;;13.70;7.80;;;;;;;;;;21003497;28;20103;-57
2023/01/26 06:59:28;;;;;;;11.35;7.50;;;;;;;;;;21002691;28;20044;-57
2023/01/26 07:09:30;;;;;;;14.65;8.38;;;;;;;;;;21001986;28;20044;-57
2023/01/26 07:19:33;;;;;;;17.33;9.05;;;;;;;;;;21000934;28;20075;-56
2023/01/26 07:29:35;;;;;;;16.38;7.88;;;;;;;;;;21000850;28;20147;-59
2023/01/26 07:39:37;;;;;;;17.73;8.25;;;;;;;;;;20999726;28;20049;-59
2023/01/26 07:49:40;;;;;;;21.30;10.13;;;;;;;;;;20997853;28;20052;-58
2023/01/26 07:59:42;;;;;;;19.83;11.65;;;;;;;;;;20997654;28;20091;-57
2023/01/26 08:09:44;;;;;;;23.13;13.15;;;;;;;;;;20997050;28;20052;-56
2023/01/26 08:19:45;;;;;;;25.92;13.15;;;;;;;;;;20979398;28;20044;-58
2023/01/26 08:29:47;;;;;;;21.50;10.98;;;;;;;;;;20996035;28;20541;-57
2023/01/26 08:39:48;;;;;;;18.05;11.43;;;;;;;;;;20996115;28;20377;-58
2023/01/26 08:49:49;;;;;;;21.17;10.75;;;;;;;;;;20995243;28;20189;-58
2023/01/26 08:59:50;;;;;;;21.67;9.55;;;;;;;;;;20995156;28;20053;-59
2023/01/26 09:09:51;;;;;;;14.65;8.90;;;;;;;;;;20994149;28;20399;-59
2023/01/26 09:19:52;;;;;;;18.58;9.85;;;;;;;;;;20975724;28;20066;-56
2023/01/26 09:29:54;;;;;;;16.90;6.82;;;;;;;;;;20995168;28;20041;-57
2023/01/26 09:39:55;;;;;;;12.73;8.15;;;;;;;;;;20994872;28;20115;-58
2023/01/26 09:50:17;;;;;;;19.75;8.40;;;;;;;;;;21007434;28;20082;-58
2023/01/26 10:00:24;;;;;;;16.60;7.80;;;;;;;;;;21007425;28;20047;-58
2023/01/26 10:10:36;;;;;;;12.35;6.90;;;;;;;;;;21007471;28;20050;-62
2023/01/26 10:20:51;;;;;;;14.73;6.57;;;;;;;;;;21004753;28;20135;-59
2023/01/26 10:30:53;;;;;;;7.30;4.67;;;;;;;;;;21006061;28;20084;-61
2023/01/26 10:40:55;;;;;;;6.30;3.25;;;;;;;;;;21010596;28;20052;-55
2023/01/26 10:51:13;;;;;;;11.32;5.97;;;;;;;;;;21007651;28;20079;-62
2023/01/26 11:01:17;;;;;;;11.77;3.97;;;;;;;;;;21006538;28;20076;-57
2023/01/26 11:11:27;;;;;;;14.30;6.95;;;;;;;;;;21004199;28;20048;-63
2023/01/26 11:21:35;;;;;;;9.15;4.95;;;;;;;;;;21002227;28;20475;-64
2023/01/26 11:31:40;;;;;;;4.93;3.47;;;;;;;;;;21004545;28;20052;-73
2023/01/26 11:41:54;;;;;;;8.47;4.60;;;;;;;;;;20996416;28;20086;-65
2023/01/26 11:52:22;;;;;;;12.63;4.50;;;;;;;;;;20936557;28;20560;-59
2023/01/26 12:02:29;;;;;;;6.72;3.40;;;;;;;;;;20888788;28;20041;-67
2023/01/26 12:12:41;;;;;;;5.47;3.75;;;;;;;;;;20935685;28;20139;-63
2023/01/26 12:22:46;;;;;;;3.92;1.40;;;;;;;;;;20914258;28;20489;-64
2023/01/26 12:32:49;;;;;;;5.78;1.48;;;;;;;;;;20912035;28;20151;-60
2023/01/26 12:42:59;;;;;;;4.60;1.88;;;;;;;;;;20913569;28;20477;-60
2023/01/26 12:53:06;;;;;;;2.88;1.30;;;;;;;;;;20911954;28;20092;-58
2023/01/26 13:03:17;;;;;;;5.07;2.13;;;;;;;;;;20911781;28;20049;-63
2023/01/26 13:13:22;;;;;;;4.97;2.08;;;;;;;;;;20912071;28;20088;-59
2023/01/26 13:23:36;;;;;;;6.00;1.87;;;;;;;;;;20928574;28;20052;-62
2023/01/26 13:33:40;;;;;;;3.60;1.70;;;;;;;;;;20928177;28;20102;-59
2023/01/26 13:44:04;;;;;;;5.15;2.03;;;;;;;;;;20926751;28;20080;-61
2023/01/26 13:54:11;;;;;;;4.07;1.70;;;;;;;;;;20926059;28;20052;-63
2023/01/26 14:04:16;;;;;;;3.50;1.55;;;;;;;;;;20926501;28;20128;-59
2023/01/26 14:14:25;;;;;;;2.90;1.85;;;;;;;;;;20926049;28;20473;-60
2023/01/26 14:24:34;;;;;;;4.10;2.15;;;;;;;;;;20922427;28;20094;-60
2023/01/26 14:34:36;;;;;;;5.47;2.20;;;;;;;;;;20920843;28;20045;-61
2023/01/26 14:44:38;;;;;;;2.58;1.80;;;;;;;;;;20920715;28;20044;-60
2023/01/26 14:54:43;;;;;;;3.88;1.77;;;;;;;;;;20921340;28;20056;-60
2023/01/26 15:05:04;;;;;;;3.28;1.95;;;;;;;;;;20919854;28;20413;-62
2023/01/26 15:15:06;;;;;;;;;;;;;;;;;;20922681;28;20102;-64
2023/01/26 15:25:20;;;;;;;6.50;2.40;;;;;;;;;;20918893;28;19921;-63
2023/01/26 15:35:29;;;;;;;6.00;1.67;;;;;;;;;;20918705;28;20060;-60
2023/01/26 15:45:35;;;;;;;2.55;1.70;;;;;;;;;;20916429;28;20045;-66
2023/01/26 15:55:37;;;;;;;3.33;1.88;;;;;;;;;;20917005;28;20065;-65
2023/01/26 16:05:39;;;;;;;4.35;2.00;;;;;;;;;;20915888;28;20052;-59
2023/01/26 16:15:40;;;;;;;2.90;1.63;;;;;;;;;;20915182;28;20045;-60
2023/01/26 16:25:42;;;;;;;6.00;1.50;;;;;;;;;;20914275;28;20531;-65
2023/01/26 16:35:45;;;;;;;4.68;1.80;;;;;;;;;;20913561;28;20045;-64
2023/01/26 16:45:47;;;;;;;3.28;2.03;;;;;;;;;;20915901;28;20084;-58
2023/01/26 16:55:49;;;;;;;5.40;1.65;;;;;;;;;;20934904;28;20049;-66
2023/01/26 17:05:51;;;;;;;4.55;1.83;;;;;;;;;;20940648;28;20048;-65
2023/01/26 17:15:55;;;;;;;4.47;1.50;;;;;;;;;;20940597;28;20132;-63
2023/01/26 17:25:58;;;;;;;3.65;1.75;;;;;;;;;;20939782;28;20048;-66
2023/01/26 17:36:01;;;;;;;5.63;1.98;;;;;;;;;;20939392;28;20118;-59
2023/01/26 17:46:04;;;;;;;3.80;2.00;;;;;;;;;;20940567;28;20053;-65
2023/01/26 17:56:08;;;;;;;3.83;1.90;;;;;;;;;;20947990;28;20049;-63
2023/01/26 18:06:10;;;;;;;4.03;1.55;;;;;;;;;;20935577;28;20472;-63
2023/01/26 18:16:14;;;;;;;6.00;1.98;;;;;;;;;;20923354;28;20075;-62
2023/01/26 18:26:16;;;;;;;6.28;2.42;;;;;;;;;;20922196;28;20429;-60
2023/01/26 18:36:19;;;;;;;6.95;2.30;;;;;;;;;;20923296;28;20386;-58
2023/01/26 18:46:22;;;;;;;6.85;2.40;;;;;;;;;;20918978;28;20082;-61
2023/01/26 18:56:24;;;;;;;4.90;2.40;;;;;;;;;;20920802;28;20041;-62
2023/01/26 19:06:27;;;;;;;5.22;2.75;;;;;;;;;;20919832;28;20052;-66
2023/01/26 19:16:30;;;;;;;5.57;2.75;;;;;;;;;;20919482;28;20041;-61
2023/01/26 19:26:32;;;;;;;5.93;2.65;;;;;;;;;;20918045;28;20079;-63
2023/01/26 19:36:35;;;;;;;6.03;2.80;;;;;;;;;;20917936;28;20392;-61
2023/01/26 19:46:37;;;;;;;5.35;3.15;;;;;;;;;;20918629;28;20053;-67
2023/01/26 19:56:39;;;;;;;5.25;3.10;;;;;;;;;;20921876;28;20071;-61
2023/01/26 20:06:41;;;;;;;17.23;8.35;;;;;;;;;;20916102;28;20045;-68
2023/01/26 20:16:43;;;;;;;11.73;5.22;;;;;;;;;;20915508;28;20094;-65
2023/01/26 20:26:46;;;;;;;19.25;10.68;;;;;;;;;;20914677;28;20052;-65
2023/01/26 20:36:49;;;;;;;36.97;20.50;;;;;;;;;;20915420;28;20049;-64
2023/01/26 20:46:51;;;;;;;8.50;5.63;;;;;;;;;;20914316;28;20057;-68
2023/01/26 20:56:53;;;;;;;10.13;5.97;;;;;;;;;;20937377;28;20075;-64
2023/01/26 21:06:55;;;;;;;10.98;5.75;;;;;;;;;;20914038;28;20049;-62
2023/01/26 21:16:57;;;;;;;12.50;7.32;;;;;;;;;;20935736;28;20422;-64
2023/01/26 21:27:01;;;;;;;14.20;8.95;;;;;;;;;;20916643;28;20049;-68
2023/01/26 21:37:05;;;;;;;12.50;7.90;;;;;;;;;;20913577;28;20051;-63
2023/01/26 21:47:09;;;;;;;11.88;6.63;;;;;;;;;;20926164;28;20053;-60
2023/01/26 22:07:31;;;;;;;14.93;7.43;;;;;;;;;;20925510;28;20102;-66
2023/01/26 22:17:34;;;;;;;13.02;9.43;;;;;;;;;;20925002;28;20381;-61
2023/01/26 22:27:39;;;;;;;19.95;12.48;;;;;;;;;;20924077;28;20053;-71
2023/01/26 22:37:41;;;;;;;13.75;8.88;;;;;;;;;;20922894;28;20094;-61
2023/01/26 22:47:45;;;;;;;10.38;5.95;;;;;;;;;;20921256;28;20060;-66
2023/01/26 22:57:47;;;;;;;11.57;5.53;;;;;;;;;;20920076;28;20045;-63
2023/01/26 23:07:49;;;;;;;8.82;5.30;;;;;;;;;;20920180;28;20103;-67
2023/01/26 23:17:51;;;;;;;13.48;8.45;;;;;;;;;;20920172;28;20049;-63
2023/01/26 23:27:54;;;;;;;12.32;6.47;;;;;;;;;;20919984;28;20072;-63
2023/01/26 23:37:57;;;;;;;10.73;6.97;;;;;;;;;;20919341;28;20056;-70
2023/01/26 23:47:59;;;;;;;16.17;9.02;;;;;;;;;;20928564;28;20084;-68
2023/01/26 23:58:02;;;;;;;15.82;8.48;;;;;;;;;;20923021;28;20196;-66
